PWSweather.com
Personal Weather Stations
Station Observations

MakarauRodneyNZ

Lat: -36.52421, Lon: 174.47572

Elevation: 606

Station Type: Davis VP2

http://kaiparaweather.dynu.net/index.php

High Low Average
Temperature 75.3°F24.1°C 62.5°F16.9°C 67.2°F19.6°C
Dew Point 68.0°F20.0°C 60.0°F15.6°C 62.9°F17.2°C
Winds 10.4 mph 16.7 kmh Calm Calm 3.0 mph E4.8 kmh E
Wind Gusts 19.6 mph31.5 kmh -- 6.0 mph9.7 kmh
Humidity 95% 72% 86%
Pressure 30.16 in1021.3 mb 29.96 in1014.6 mb -
Precipitation 0.00 in0.0 mm - -
Hour Temp Dew Point Humidity Winds Wind Gusts Pressure Precip Precip Rate Daily Precip Total
12:00 AM 64.5°F18.1°C 61.8°F16.6°C 91% Calm Calm -- 29.96 in1014.6 mb - 0.00 in0.0 mm 0.00 in0.0 mm
12:10 AM 64.2°F17.9°C 61.5°F16.4°C 91% Calm Calm -- 29.97 in1014.9 mb - 0.00 in0.0 mm 0.00 in0.0 mm
12:20 AM 63.9°F17.7°C 61.3°F16.3°C 91% Calm Calm -- 29.97 in1014.9 mb - 0.00 in0.0 mm 0.00 in0.0 mm
12:30 AM 64.0°F17.8°C 61.6°F16.4°C 92% 1.2 mph SSW1.9 kmh SSW 3.5 mph5.6 kmh 29.96 in1014.6 mb - 0.00 in0.0 mm 0.00 in0.0 mm
12:40 AM 64.1°F17.8°C 61.7°F16.5°C 92% 2.3 mph SSE3.7 kmh SSE 3.5 mph5.6 kmh 29.96 in1014.6 mb - 0.00 in0.0 mm 0.00 in0.0 mm
12:50 AM 64.1°F17.8°C 62.1°F16.7°C 93% 2.3 mph SSE3.7 kmh SSE 3.5 mph5.6 kmh 29.96 in1014.6 mb - 0.00 in0.0 mm 0.00 in0.0 mm
01:00 AM 64.0°F17.8°C 61.9°F16.6°C 93% 1.2 mph SSE1.9 kmh SSE 3.5 mph5.6 kmh 29.96 in1014.6 mb - 0.00 in0.0 mm 0.00 in0.0 mm
01:10 AM 64.0°F17.8°C 61.9°F16.6°C 93% 2.3 mph SSE3.7 kmh SSE 3.5 mph5.6 kmh 29.96 in1014.6 mb - 0.00 in0.0 mm 0.00 in0.0 mm
01:20 AM 63.9°F17.7°C 61.8°F16.6°C 93% 2.3 mph SSE3.7 kmh SSE 3.5 mph5.6 kmh 29.96 in1014.6 mb - 0.00 in0.0 mm 0.00 in0.0 mm
01:30 AM 63.7°F17.6°C 61.6°F16.4°C 93% 2.3 mph SSE3.7 kmh SSE 5.8 mph9.3 kmh 29.96 in1014.6 mb - 0.00 in0.0 mm 0.00 in0.0 mm
01:40 AM 63.8°F17.7°C 62.0°F16.7°C 94% 2.3 mph SSE3.7 kmh SSE 3.5 mph5.6 kmh 29.97 in1014.9 mb - 0.00 in0.0 mm 0.00 in0.0 mm
01:50 AM 63.7°F17.6°C 61.9°F16.6°C 94% Calm Calm -- 29.96 in1014.6 mb - 0.00 in0.0 mm 0.00 in0.0 mm
02:00 AM 63.4°F17.4°C 61.7°F16.5°C 94% 2.3 mph SSE3.7 kmh SSE 3.5 mph5.6 kmh 29.96 in1014.6 mb - 0.00 in0.0 mm 0.00 in0.0 mm
02:10 AM 63.7°F17.6°C 61.9°F16.6°C 94% 3.5 mph SE5.6 kmh SE 3.5 mph5.6 kmh 29.96 in1014.6 mb - 0.00 in0.0 mm 0.00 in0.0 mm
02:20 AM 63.8°F17.7°C 61.7°F16.5°C 93% Calm Calm -- 29.96 in1014.6 mb - 0.00 in0.0 mm 0.00 in0.0 mm
02:30 AM 63.6°F17.6°C 61.5°F16.4°C 93% Calm Calm -- 29.96 in1014.6 mb - 0.00 in0.0 mm 0.00 in0.0 mm
02:40 AM 63.3°F17.4°C 61.2°F16.2°C 93% Calm Calm 1.2 mph1.9 kmh 29.96 in1014.6 mb - 0.00 in0.0 mm 0.00 in0.0 mm
02:50 AM 62.5°F16.9°C 60.5°F15.8°C 93% Calm Calm -- 29.96 in1014.6 mb - 0.00 in0.0 mm 0.00 in0.0 mm
03:00 AM 62.9°F17.2°C 61.1°F16.2°C 94% 1.2 mph E1.9 kmh E 3.5 mph5.6 kmh 29.96 in1014.6 mb - 0.00 in0.0 mm 0.00 in0.0 mm
03:10 AM 63.2°F17.3°C 61.4°F16.3°C 94% 3.5 mph SE5.6 kmh SE 4.6 mph7.4 kmh 29.96 in1014.6 mb - 0.00 in0.0 mm 0.00 in0.0 mm
03:20 AM 63.5°F17.5°C 61.7°F16.5°C 94% 3.5 mph SSE5.6 kmh SSE 5.8 mph9.3 kmh 29.96 in1014.6 mb - 0.00 in0.0 mm 0.00 in0.0 mm
03:30 AM 63.7°F17.6°C 61.9°F16.6°C 94% 3.5 mph SE5.6 kmh SE 3.5 mph5.6 kmh 29.96 in1014.6 mb - 0.00 in0.0 mm 0.00 in0.0 mm
03:40 AM 63.3°F17.4°C 61.2°F16.2°C 93% 1.2 mph S1.9 kmh S 3.5 mph5.6 kmh 29.96 in1014.6 mb - 0.00 in0.0 mm 0.00 in0.0 mm
03:50 AM 63.4°F17.4°C 61.6°F16.4°C 94% 2.3 mph SSE3.7 kmh SSE 3.5 mph5.6 kmh 29.96 in1014.6 mb - 0.00 in0.0 mm 0.00 in0.0 mm
04:00 AM 63.5°F17.5°C 61.7°F16.5°C 94% 4.6 mph SE7.4 kmh SE 5.8 mph9.3 kmh 29.96 in1014.6 mb - 0.00 in0.0 mm 0.00 in0.0 mm
04:10 AM 63.9°F17.7°C 62.1°F16.7°C 94% 2.3 mph SE3.7 kmh SE 3.5 mph5.6 kmh 29.96 in1014.6 mb - 0.00 in0.0 mm 0.00 in0.0 mm
04:20 AM 64.1°F17.8°C 62.0°F16.7°C 93% 1.2 mph SSE1.9 kmh SSE 3.5 mph5.6 kmh 29.96 in1014.6 mb - 0.00 in0.0 mm 0.00 in0.0 mm
04:30 AM 64.1°F17.8°C 61.7°F16.5°C 92% 1.2 mph SE1.9 kmh SE 5.8 mph9.3 kmh 29.96 in1014.6 mb - 0.00 in0.0 mm 0.00 in0.0 mm
04:40 AM 64.2°F17.9°C 61.8°F16.6°C 92% Calm Calm -- 29.96 in1014.6 mb - 0.00 in0.0 mm 0.00 in0.0 mm
04:50 AM 64.2°F17.9°C 61.8°F16.6°C 92% Calm Calm 2.3 mph3.7 kmh 29.96 in1014.6 mb - 0.00 in0.0 mm 0.00 in0.0 mm
05:00 AM 64.2°F17.9°C 61.8°F16.6°C 92% 4.6 mph SE7.4 kmh SE 5.8 mph9.3 kmh 29.96 in1014.6 mb - 0.00 in0.0 mm 0.00 in0.0 mm
05:10 AM 63.9°F17.7°C 61.5°F16.4°C 92% 2.3 mph SE3.7 kmh SE 5.8 mph9.3 kmh 29.97 in1014.9 mb - 0.00 in0.0 mm 0.00 in0.0 mm
05:20 AM 64.1°F17.8°C 62.0°F16.7°C 93% 1.2 mph SE1.9 kmh SE -- 29.97 in1014.9 mb - 0.00 in0.0 mm 0.00 in0.0 mm
05:30 AM 64.1°F17.8°C 61.7°F16.5°C 92% 2.3 mph SSE3.7 kmh SSE 4.6 mph7.4 kmh 29.97 in1014.9 mb - 0.00 in0.0 mm 0.00 in0.0 mm
05:40 AM 64.1°F17.8°C 62.1°F16.7°C 93% Calm Calm -- 29.98 in1015.2 mb - 0.00 in0.0 mm 0.00 in0.0 mm
05:50 AM 63.6°F17.6°C 61.3°F16.3°C 92% Calm Calm -- 29.98 in1015.2 mb - 0.00 in0.0 mm 0.00 in0.0 mm
06:00 AM 63.3°F17.4°C 61.2°F16.2°C 93% Calm Calm -- 29.98 in1015.2 mb - 0.00 in0.0 mm 0.00 in0.0 mm
06:10 AM 62.6°F17.0°C 60.2°F15.7°C 92% Calm Calm -- 29.99 in1015.6 mb - 0.00 in0.0 mm 0.00 in0.0 mm
06:20 AM 62.5°F16.9°C 60.7°F15.9°C 94% Calm Calm -- 30.00 in1015.9 mb - 0.00 in0.0 mm 0.00 in0.0 mm
06:30 AM 62.9°F17.2°C 61.1°F16.2°C 94% Calm Calm -- 30.00 in1015.9 mb - 0.00 in0.0 mm 0.00 in0.0 mm
06:40 AM 63.1°F17.3°C 61.4°F16.3°C 94% Calm Calm -- 30.00 in1015.9 mb - 0.00 in0.0 mm 0.00 in0.0 mm
06:50 AM 63.3°F17.4°C 61.8°F16.6°C 95% 1.2 mph SE1.9 kmh SE 2.3 mph3.7 kmh 30.00 in1015.9 mb - 0.00 in0.0 mm 0.00 in0.0 mm
07:00 AM 63.4°F17.4°C 61.9°F16.6°C 95% 1.2 mph SE1.9 kmh SE 1.2 mph1.9 kmh 30.01 in1016.3 mb - 0.00 in0.0 mm 0.00 in0.0 mm
07:10 AM 63.5°F17.5°C 61.7°F16.5°C 94% Calm Calm 3.5 mph5.6 kmh 30.02 in1016.6 mb - 0.00 in0.0 mm 0.00 in0.0 mm
07:20 AM 63.7°F17.6°C 61.9°F16.6°C 94% 1.2 mph SSE1.9 kmh SSE 3.5 mph5.6 kmh 30.02 in1016.6 mb - 0.00 in0.0 mm 0.00 in0.0 mm
07:30 AM 63.9°F17.7°C 62.1°F16.7°C 94% 1.2 mph SSE1.9 kmh SSE 2.3 mph3.7 kmh 30.02 in1016.6 mb - 0.00 in0.0 mm 0.00 in0.0 mm
07:40 AM 64.4°F18.0°C 62.6°F17.0°C 94% 2.3 mph S3.7 kmh S 5.8 mph9.3 kmh 30.02 in1016.6 mb - 0.00 in0.0 mm 0.00 in0.0 mm
07:50 AM 64.7°F18.2°C 62.9°F17.2°C 94% 3.5 mph S5.6 kmh S 8.1 mph13.0 kmh 30.03 in1016.9 mb - 0.00 in0.0 mm 0.00 in0.0 mm
08:00 AM 65.0°F18.3°C 62.9°F17.2°C 93% Calm Calm -- 30.03 in1016.9 mb - 0.00 in0.0 mm 0.00 in0.0 mm
08:10 AM 65.8°F18.8°C 64.0°F17.8°C 94% Calm Calm -- 30.03 in1016.9 mb - 0.00 in0.0 mm 0.00 in0.0 mm
08:20 AM 66.2°F19.0°C 63.8°F17.7°C 92% 2.3 mph SE3.7 kmh SE 3.5 mph5.6 kmh 30.03 in1016.9 mb - 0.00 in0.0 mm 0.00 in0.0 mm
08:30 AM 65.7°F18.7°C 63.3°F17.4°C 92% 3.5 mph SSE5.6 kmh SSE 3.5 mph5.6 kmh 30.03 in1016.9 mb - 0.00 in0.0 mm 0.00 in0.0 mm
08:40 AM 66.2°F19.0°C 64.1°F17.8°C 93% Calm Calm -- 30.03 in1016.9 mb - 0.00 in0.0 mm 0.00 in0.0 mm
08:50 AM 66.6°F19.2°C 64.2°F17.9°C 92% 2.3 mph SSE3.7 kmh SSE 5.8 mph9.3 kmh 30.04 in1017.3 mb - 0.00 in0.0 mm 0.00 in0.0 mm
09:00 AM 66.8°F19.3°C 64.4°F18.0°C 92% 1.2 mph SE1.9 kmh SE 2.3 mph3.7 kmh 30.04 in1017.3 mb - 0.00 in0.0 mm 0.00 in0.0 mm
09:10 AM 67.2°F19.6°C 64.5°F18.1°C 91% 1.2 mph NNE1.9 kmh NNE 3.5 mph5.6 kmh 30.04 in1017.3 mb - 0.00 in0.0 mm 0.00 in0.0 mm
09:20 AM 68.2°F20.1°C 65.1°F18.4°C 90% 1.2 mph N1.9 kmh N 2.3 mph3.7 kmh 30.04 in1017.3 mb - 0.00 in0.0 mm 0.00 in0.0 mm
09:30 AM 68.8°F20.4°C 65.5°F18.6°C 89% 1.2 mph N1.9 kmh N 2.3 mph3.7 kmh 30.04 in1017.3 mb - 0.00 in0.0 mm 0.00 in0.0 mm
09:40 AM 69.7°F20.9°C 66.0°F18.9°C 88% 1.2 mph N1.9 kmh N 4.6 mph7.4 kmh 30.04 in1017.3 mb - 0.00 in0.0 mm 0.00 in0.0 mm
09:50 AM 70.6°F21.4°C 66.2°F19.0°C 86% 2.3 mph N3.7 kmh N 8.1 mph13.0 kmh 30.04 in1017.3 mb - 0.00 in0.0 mm 0.00 in0.0 mm
10:00 AM 72.0°F22.2°C 66.9°F19.4°C 84% 3.5 mph NNE5.6 kmh NNE 10.4 mph16.7 kmh 30.04 in1017.3 mb - 0.00 in0.0 mm 0.00 in0.0 mm
10:10 AM 72.6°F22.6°C 66.0°F18.9°C 80% 8.1 mph NNE13.0 kmh NNE 11.5 mph18.5 kmh 30.04 in1017.3 mb - 0.00 in0.0 mm 0.00 in0.0 mm
10:20 AM 72.4°F22.4°C 66.6°F19.2°C 82% 1.2 mph N1.9 kmh N 3.5 mph5.6 kmh 30.05 in1017.6 mb - 0.00 in0.0 mm 0.00 in0.0 mm
10:30 AM 72.6°F22.6°C 66.8°F19.3°C 82% 1.2 mph NNE1.9 kmh NNE 2.3 mph3.7 kmh 30.04 in1017.3 mb - 0.00 in0.0 mm 0.00 in0.0 mm
10:40 AM 73.8°F23.2°C 66.9°F19.4°C 79% 3.5 mph NNE5.6 kmh NNE 6.9 mph11.1 kmh 30.05 in1017.6 mb - 0.00 in0.0 mm 0.00 in0.0 mm
10:50 AM 74.3°F23.5°C 67.0°F19.4°C 78% 2.3 mph NNE3.7 kmh NNE 3.5 mph5.6 kmh 30.04 in1017.3 mb - 0.00 in0.0 mm 0.00 in0.0 mm
11:00 AM 73.7°F23.2°C 66.8°F19.3°C 79% 5.8 mph NE9.3 kmh NE 11.5 mph18.5 kmh 30.04 in1017.3 mb - 0.00 in0.0 mm 0.00 in0.0 mm
11:10 AM 75.3°F24.1°C 68.0°F20.0°C 78% 5.8 mph NE9.3 kmh NE 8.1 mph13.0 kmh 30.04 in1017.3 mb - 0.00 in0.0 mm 0.00 in0.0 mm
11:20 AM 74.4°F23.6°C 67.1°F19.5°C 78% Calm Calm 2.3 mph3.7 kmh 30.05 in1017.6 mb - 0.00 in0.0 mm 0.00 in0.0 mm
11:30 AM 72.3°F22.4°C 67.2°F19.6°C 84% 1.2 mph NNE1.9 kmh NNE 1.2 mph1.9 kmh 30.04 in1017.3 mb - 0.00 in0.0 mm 0.00 in0.0 mm
11:40 AM 72.3°F22.4°C 66.9°F19.4°C 83% 6.9 mph NNE11.1 kmh NNE 10.4 mph16.7 kmh 30.04 in1017.3 mb - 0.00 in0.0 mm 0.00 in0.0 mm
11:50 AM 72.5°F22.5°C 66.0°F18.9°C 80% 10.4 mph NNE16.7 kmh NNE 19.6 mph31.5 kmh 30.03 in1016.9 mb - 0.00 in0.0 mm 0.00 in0.0 mm
12:00 PM 72.4°F22.4°C 65.1°F18.4°C 78% 9.2 mph NNE14.8 kmh NNE 17.3 mph27.8 kmh 30.04 in1017.3 mb - 0.00 in0.0 mm 0.00 in0.0 mm
12:10 PM 71.6°F22.0°C 65.5°F18.6°C 81% 6.9 mph N11.1 kmh N 11.5 mph18.5 kmh 30.04 in1017.3 mb - 0.00 in0.0 mm 0.00 in0.0 mm
12:20 PM 71.4°F21.9°C 65.2°F18.4°C 81% 1.2 mph NNE1.9 kmh NNE 2.3 mph3.7 kmh 30.04 in1017.3 mb - 0.00 in0.0 mm 0.00 in0.0 mm
12:30 PM 71.3°F21.8°C 65.9°F18.8°C 83% Calm Calm 1.2 mph1.9 kmh 30.04 in1017.3 mb - 0.00 in0.0 mm 0.00 in0.0 mm
12:40 PM 70.9°F21.6°C 64.8°F18.2°C 81% Calm Calm 1.2 mph1.9 kmh 30.05 in1017.6 mb - 0.00 in0.0 mm 0.00 in0.0 mm
12:50 PM 70.7°F21.5°C 64.9°F18.3°C 82% 1.2 mph NNE1.9 kmh NNE 1.2 mph1.9 kmh 30.04 in1017.3 mb - 0.00 in0.0 mm 0.00 in0.0 mm
01:00 PM 71.1°F21.7°C 65.3°F18.5°C 82% 3.5 mph N5.6 kmh N 8.1 mph13.0 kmh 30.04 in1017.3 mb - 0.00 in0.0 mm 0.00 in0.0 mm
01:10 PM 71.7°F22.1°C 65.2°F18.4°C 80% 6.9 mph NE11.1 kmh NE 10.4 mph16.7 kmh 30.04 in1017.3 mb - 0.00 in0.0 mm 0.00 in0.0 mm
01:20 PM 72.3°F22.4°C 66.2°F19.0°C 81% 1.2 mph NNE1.9 kmh NNE 5.8 mph9.3 kmh 30.04 in1017.3 mb - 0.00 in0.0 mm 0.00 in0.0 mm
01:30 PM 72.4°F22.4°C 65.1°F18.4°C 78% 6.9 mph NE11.1 kmh NE 10.4 mph16.7 kmh 30.04 in1017.3 mb - 0.00 in0.0 mm 0.00 in0.0 mm
01:40 PM 72.5°F22.5°C 65.6°F18.7°C 79% Calm Calm 2.3 mph3.7 kmh 30.04 in1017.3 mb - 0.00 in0.0 mm 0.00 in0.0 mm
01:50 PM 72.6°F22.6°C 65.3°F18.5°C 78% Calm Calm 1.2 mph1.9 kmh 30.04 in1017.3 mb - 0.00 in0.0 mm 0.00 in0.0 mm
02:00 PM 71.7°F22.1°C 65.6°F18.7°C 81% 5.8 mph NE9.3 kmh NE 10.4 mph16.7 kmh 30.04 in1017.3 mb - 0.00 in0.0 mm 0.00 in0.0 mm
02:10 PM 71.1°F21.7°C 65.0°F18.3°C 81% 1.2 mph E1.9 kmh E 8.1 mph13.0 kmh 30.04 in1017.3 mb - 0.00 in0.0 mm 0.00 in0.0 mm
02:20 PM 70.7°F21.5°C 64.2°F17.9°C 80% Calm Calm -- 30.05 in1017.6 mb - 0.00 in0.0 mm 0.00 in0.0 mm
02:30 PM 70.3°F21.3°C 64.2°F17.9°C 81% Calm Calm 1.2 mph1.9 kmh 30.05 in1017.6 mb - 0.00 in0.0 mm 0.00 in0.0 mm
02:40 PM 70.3°F21.3°C 64.6°F18.1°C 82% Calm Calm 1.2 mph1.9 kmh 30.05 in1017.6 mb - 0.00 in0.0 mm 0.00 in0.0 mm
02:50 PM 70.2°F21.2°C 64.1°F17.8°C 81% 2.3 mph NNE3.7 kmh NNE 11.5 mph18.5 kmh 30.05 in1017.6 mb - 0.00 in0.0 mm 0.00 in0.0 mm
03:00 PM 70.1°F21.2°C 64.0°F17.8°C 81% 2.3 mph NE3.7 kmh NE 6.9 mph11.1 kmh 30.05 in1017.6 mb - 0.00 in0.0 mm 0.00 in0.0 mm
03:10 PM 70.1°F21.2°C 64.0°F17.8°C 81% 1.2 mph NNE1.9 kmh NNE 3.5 mph5.6 kmh 30.05 in1017.6 mb - 0.00 in0.0 mm 0.00 in0.0 mm
03:20 PM 70.2°F21.2°C 63.7°F17.6°C 80% 1.2 mph NNE1.9 kmh NNE 2.3 mph3.7 kmh 30.05 in1017.6 mb - 0.00 in0.0 mm 0.00 in0.0 mm
03:30 PM 70.4°F21.3°C 63.6°F17.6°C 79% 2.3 mph NNE3.7 kmh NNE 11.5 mph18.5 kmh 30.05 in1017.6 mb - 0.00 in0.0 mm 0.00 in0.0 mm
03:40 PM 71.0°F21.7°C 63.8°F17.7°C 78% 5.8 mph NNE9.3 kmh NNE 9.2 mph14.8 kmh 30.05 in1017.6 mb - 0.00 in0.0 mm 0.00 in0.0 mm
03:50 PM 72.1°F22.3°C 64.2°F17.9°C 76% 6.9 mph NNE11.1 kmh NNE 12.7 mph20.4 kmh 30.05 in1017.6 mb - 0.00 in0.0 mm 0.00 in0.0 mm
04:00 PM 73.7°F23.2°C 64.5°F18.1°C 73% 3.5 mph NNE5.6 kmh NNE 10.4 mph16.7 kmh 30.05 in1017.6 mb - 0.00 in0.0 mm 0.00 in0.0 mm
04:10 PM 74.1°F23.4°C 64.5°F18.1°C 72% 8.1 mph NNE13.0 kmh NNE 18.4 mph29.6 kmh 30.05 in1017.6 mb - 0.00 in0.0 mm 0.00 in0.0 mm
04:20 PM 73.6°F23.1°C 64.4°F18.0°C 73% 3.5 mph NNE5.6 kmh NNE 3.5 mph5.6 kmh 30.05 in1017.6 mb - 0.00 in0.0 mm 0.00 in0.0 mm
04:30 PM 73.6°F23.1°C 64.4°F18.0°C 73% 5.8 mph NNE9.3 kmh NNE 11.5 mph18.5 kmh 30.05 in1017.6 mb - 0.00 in0.0 mm 0.00 in0.0 mm
04:40 PM 72.3°F22.4°C 63.2°F17.3°C 73% 8.1 mph NNE13.0 kmh NNE 15.0 mph24.1 kmh 30.06 in1017.9 mb - 0.00 in0.0 mm 0.00 in0.0 mm
04:50 PM 71.4°F21.9°C 63.0°F17.2°C 75% 5.8 mph NNE9.3 kmh NNE 10.4 mph16.7 kmh 30.06 in1017.9 mb - 0.00 in0.0 mm 0.00 in0.0 mm
05:00 PM 70.2°F21.2°C 62.3°F16.8°C 76% 8.1 mph NE13.0 kmh NE 10.4 mph16.7 kmh 30.06 in1017.9 mb - 0.00 in0.0 mm 0.00 in0.0 mm
05:10 PM 69.8°F21.0°C 62.3°F16.8°C 77% 1.2 mph NNE1.9 kmh NNE 11.5 mph18.5 kmh 30.07 in1018.3 mb - 0.00 in0.0 mm 0.00 in0.0 mm
05:20 PM 69.2°F20.7°C 61.3°F16.3°C 76% 6.9 mph NNE11.1 kmh NNE 9.2 mph14.8 kmh 30.07 in1018.3 mb - 0.00 in0.0 mm 0.00 in0.0 mm
05:30 PM 68.7°F20.4°C 61.2°F16.2°C 77% Calm Calm 1.2 mph1.9 kmh 30.07 in1018.3 mb - 0.00 in0.0 mm 0.00 in0.0 mm
05:40 PM 68.3°F20.2°C 61.2°F16.2°C 78% 5.8 mph ENE9.3 kmh ENE 8.1 mph13.0 kmh 30.08 in1018.6 mb - 0.00 in0.0 mm 0.00 in0.0 mm
05:50 PM 67.8°F19.9°C 60.7°F15.9°C 78% 4.6 mph NNE7.4 kmh NNE 12.7 mph20.4 kmh 30.08 in1018.6 mb - 0.00 in0.0 mm 0.00 in0.0 mm
06:00 PM 67.5°F19.7°C 60.8°F16.0°C 79% 5.8 mph NNE9.3 kmh NNE 11.5 mph18.5 kmh 30.09 in1019.0 mb - 0.00 in0.0 mm 0.00 in0.0 mm
06:10 PM 67.1°F19.5°C 60.7°F15.9°C 80% 1.2 mph NNE1.9 kmh NNE 10.4 mph16.7 kmh 30.09 in1019.0 mb - 0.00 in0.0 mm 0.00 in0.0 mm
06:20 PM 66.7°F19.3°C 60.7°F15.9°C 81% 3.5 mph ESE5.6 kmh ESE 12.7 mph20.4 kmh 30.09 in1019.0 mb - 0.00 in0.0 mm 0.00 in0.0 mm
06:30 PM 66.3°F19.1°C 60.7°F15.9°C 82% 4.6 mph NNE7.4 kmh NNE 6.9 mph11.1 kmh 30.10 in1019.3 mb - 0.00 in0.0 mm 0.00 in0.0 mm
06:40 PM 65.9°F18.8°C 60.6°F15.9°C 83% 1.2 mph NNE1.9 kmh NNE 10.4 mph16.7 kmh 30.10 in1019.3 mb - 0.00 in0.0 mm 0.00 in0.0 mm
06:50 PM 65.8°F18.8°C 60.8°F16.0°C 84% 3.5 mph NE5.6 kmh NE 8.1 mph13.0 kmh 30.11 in1019.6 mb - 0.00 in0.0 mm 0.00 in0.0 mm
07:00 PM 65.8°F18.8°C 61.5°F16.4°C 86% Calm Calm 2.3 mph3.7 kmh 30.11 in1019.6 mb - 0.00 in0.0 mm 0.00 in0.0 mm
07:10 PM 65.1°F18.4°C 61.1°F16.2°C 87% Calm Calm 3.5 mph5.6 kmh 30.11 in1019.6 mb - 0.00 in0.0 mm 0.00 in0.0 mm
07:20 PM 64.6°F18.1°C 61.0°F16.1°C 88% 1.2 mph NNE1.9 kmh NNE 3.5 mph5.6 kmh 30.11 in1019.6 mb - 0.00 in0.0 mm 0.00 in0.0 mm
07:30 PM 64.2°F17.9°C 60.6°F15.9°C 88% Calm Calm 3.5 mph5.6 kmh 30.11 in1019.6 mb - 0.00 in0.0 mm 0.00 in0.0 mm
07:40 PM 64.1°F17.8°C 60.2°F15.7°C 87% 2.3 mph NNE3.7 kmh NNE 10.4 mph16.7 kmh 30.12 in1020.0 mb - 0.00 in0.0 mm 0.00 in0.0 mm
07:50 PM 64.3°F17.9°C 60.3°F15.7°C 87% 1.2 mph NE1.9 kmh NE 2.3 mph3.7 kmh 30.12 in1020.0 mb - 0.00 in0.0 mm 0.00 in0.0 mm
08:00 PM 64.2°F17.9°C 60.3°F15.7°C 87% 1.2 mph NNE1.9 kmh NNE 10.4 mph16.7 kmh 30.13 in1020.3 mb - 0.00 in0.0 mm 0.00 in0.0 mm
08:10 PM 64.4°F18.0°C 60.4°F15.8°C 87% 1.2 mph NNE1.9 kmh NNE 2.3 mph3.7 kmh 30.13 in1020.3 mb - 0.00 in0.0 mm 0.00 in0.0 mm
08:20 PM 64.3°F17.9°C 60.7°F15.9°C 88% 6.9 mph NNE11.1 kmh NNE 11.5 mph18.5 kmh 30.14 in1020.7 mb - 0.00 in0.0 mm 0.00 in0.0 mm
08:30 PM 64.2°F17.9°C 60.5°F15.8°C 88% 8.1 mph NNE13.0 kmh NNE 11.5 mph18.5 kmh 30.14 in1020.7 mb - 0.00 in0.0 mm 0.00 in0.0 mm
08:40 PM 64.0°F17.8°C 60.4°F15.8°C 88% 8.1 mph NNE13.0 kmh NNE 10.4 mph16.7 kmh 30.14 in1020.7 mb - 0.00 in0.0 mm 0.00 in0.0 mm
08:50 PM 64.1°F17.8°C 60.5°F15.8°C 88% 8.1 mph NNE13.0 kmh NNE 12.7 mph20.4 kmh 30.14 in1020.7 mb - 0.00 in0.0 mm 0.00 in0.0 mm
09:00 PM 64.1°F17.8°C 60.1°F15.6°C 87% 9.2 mph NNE14.8 kmh NNE 13.8 mph22.2 kmh 30.15 in1021.0 mb - 0.00 in0.0 mm 0.00 in0.0 mm
09:10 PM 64.0°F17.8°C 60.0°F15.6°C 87% 6.9 mph NNE11.1 kmh NNE 11.5 mph18.5 kmh 30.16 in1021.3 mb - 0.00 in0.0 mm 0.00 in0.0 mm
09:20 PM 64.0°F17.8°C 60.1°F15.6°C 87% 8.1 mph NNE13.0 kmh NNE 13.8 mph22.2 kmh 30.16 in1021.3 mb - 0.00 in0.0 mm 0.00 in0.0 mm
09:30 PM 64.0°F17.8°C 60.4°F15.8°C 88% 8.1 mph NE13.0 kmh NE 11.5 mph18.5 kmh 30.16 in1021.3 mb - 0.00 in0.0 mm 0.00 in0.0 mm
09:40 PM 63.9°F17.7°C 60.3°F15.7°C 88% 5.8 mph NNE9.3 kmh NNE 9.2 mph14.8 kmh 30.16 in1021.3 mb - 0.00 in0.0 mm 0.00 in0.0 mm